sensor_id;sensor_type;location;lat;lon;timestamp;temperature;humidity
68235;DHT22;55052;52.056;5.296;2023-10-13T00:00:48;18.50;97.70
68235;DHT22;55052;52.056;5.296;2023-10-13T00:03:15;18.50;97.70
68235;DHT22;55052;52.056;5.296;2023-10-13T00:05:43;18.50;97.70
68235;DHT22;55052;52.056;5.296;2023-10-13T00:08:11;18.50;97.70
68235;DHT22;55052;52.056;5.296;2023-10-13T00:10:38;18.50;97.70
68235;DHT22;55052;52.056;5.296;2023-10-13T00:13:05;18.50;98.10
68235;DHT22;55052;52.056;5.296;2023-10-13T00:15:46;18.50;97.70
68235;DHT22;55052;52.056;5.296;2023-10-13T00:18:19;18.50;97.70
68235;DHT22;55052;52.056;5.296;2023-10-13T00:20:46;18.50;97.80
68235;DHT22;55052;52.056;5.296;2023-10-13T00:23:16;18.50;97.70
68235;DHT22;55052;52.056;5.296;2023-10-13T00:25:51;18.50;97.70
68235;DHT22;55052;52.056;5.296;2023-10-13T00:28:24;18.50;98.10
68235;DHT22;55052;52.056;5.296;2023-10-13T00:30:54;18.40;97.70
68235;DHT22;55052;52.056;5.296;2023-10-13T00:33:28;18.40;97.70
68235;DHT22;55052;52.056;5.296;2023-10-13T00:35:55;18.40;97.70
68235;DHT22;55052;52.056;5.296;2023-10-13T00:38:25;18.40;97.70
68235;DHT22;55052;52.056;5.296;2023-10-13T00:40:54;18.40;97.70
68235;DHT22;55052;52.056;5.296;2023-10-13T00:43:22;18.50;97.70
68235;DHT22;55052;52.056;5.296;2023-10-13T00:45:57;18.50;97.70
68235;DHT22;55052;52.056;5.296;2023-10-13T00:48:25;18.50;97.70
68235;DHT22;55052;52.056;5.296;2023-10-13T00:51:05;18.50;97.70
68235;DHT22;55052;52.056;5.296;2023-10-13T00:53:40;18.50;97.70
68235;DHT22;55052;52.056;5.296;2023-10-13T00:56:08;18.50;97.70
68235;DHT22;55052;52.056;5.296;2023-10-13T00:58:45;18.50;97.70
68235;DHT22;55052;52.056;5.296;2023-10-13T01:01:13;18.50;97.70
68235;DHT22;55052;52.056;5.296;2023-10-13T01:03:50;18.50;97.70
68235;DHT22;55052;52.056;5.296;2023-10-13T01:06:22;18.50;97.80
68235;DHT22;55052;52.056;5.296;2023-10-13T01:09:03;18.50;97.70
68235;DHT22;55052;52.056;5.296;2023-10-13T01:11:51;18.50;97.70
68235;DHT22;55052;52.056;5.296;2023-10-13T01:14:22;18.50;97.70
68235;DHT22;55052;52.056;5.296;2023-10-13T01:16:50;18.50;97.70
68235;DHT22;55052;52.056;5.296;2023-10-13T01:19:20;18.50;97.70
68235;DHT22;55052;52.056;5.296;2023-10-13T01:21:52;18.50;97.70
68235;DHT22;55052;52.056;5.296;2023-10-13T01:24:30;18.50;97.70
68235;DHT22;55052;52.056;5.296;2023-10-13T01:27:03;18.50;97.70
68235;DHT22;55052;52.056;5.296;2023-10-13T01:29:48;18.50;97.70
68235;DHT22;55052;52.056;5.296;2023-10-13T01:32:20;18.50;97.70
68235;DHT22;55052;52.056;5.296;2023-10-13T01:34:48;18.50;97.70
68235;DHT22;55052;52.056;5.296;2023-10-13T01:37:16;18.50;97.80
68235;DHT22;55052;52.056;5.296;2023-10-13T01:39:46;18.50;97.80
68235;DHT22;55052;52.056;5.296;2023-10-13T01:42:15;18.50;97.80
68235;DHT22;55052;52.056;5.296;2023-10-13T01:44:49;18.50;97.80
68235;DHT22;55052;52.056;5.296;2023-10-13T01:47:16;18.50;97.80
68235;DHT22;55052;52.056;5.296;2023-10-13T01:49:44;18.50;97.80
68235;DHT22;55052;52.056;5.296;2023-10-13T01:52:15;18.50;97.80
68235;DHT22;55052;52.056;5.296;2023-10-13T01:54:44;18.50;97.80
68235;DHT22;55052;52.056;5.296;2023-10-13T01:57:12;18.50;97.80
68235;DHT22;55052;52.056;5.296;2023-10-13T01:59:46;18.50;97.80
68235;DHT22;55052;52.056;5.296;2023-10-13T02:02:15;18.50;97.80
68235;DHT22;55052;52.056;5.296;2023-10-13T02:04:46;18.50;97.80
68235;DHT22;55052;52.056;5.296;2023-10-13T02:07:22;18.50;97.80
68235;DHT22;55052;52.056;5.296;2023-10-13T02:09:53;18.50;97.80
68235;DHT22;55052;52.056;5.296;2023-10-13T02:12:23;18.50;97.80
68235;DHT22;55052;52.056;5.296;2023-10-13T02:15:03;18.50;97.70
68235;DHT22;55052;52.056;5.296;2023-10-13T02:17:31;18.40;97.70
68235;DHT22;55052;52.056;5.296;2023-10-13T02:20:09;18.40;97.70
68235;DHT22;55052;52.056;5.296;2023-10-13T02:22:41;18.40;97.70
68235;DHT22;55052;52.056;5.296;2023-10-13T02:25:16;18.40;98.10
68235;DHT22;55052;52.056;5.296;2023-10-13T02:28:04;18.40;97.70
68235;DHT22;55052;52.056;5.296;2023-10-13T02:30:43;18.40;97.70
68235;DHT22;55052;52.056;5.296;2023-10-13T02:33:16;18.40;97.70
68235;DHT22;55052;52.056;5.296;2023-10-13T02:35:48;18.40;97.70
68235;DHT22;55052;52.056;5.296;2023-10-13T02:38:22;18.40;97.70
68235;DHT22;55052;52.056;5.296;2023-10-13T02:41:02;18.40;97.70
68235;DHT22;55052;52.056;5.296;2023-10-13T02:43:35;18.40;97.70
68235;DHT22;55052;52.056;5.296;2023-10-13T02:46:03;18.40;97.70
68235;DHT22;55052;52.056;5.296;2023-10-13T02:48:31;18.40;97.70
68235;DHT22;55052;52.056;5.296;2023-10-13T02:51:08;18.40;97.80
68235;DHT22;55052;52.056;5.296;2023-10-13T02:53:45;18.40;97.80
68235;DHT22;55052;52.056;5.296;2023-10-13T02:56:19;18.40;97.80
68235;DHT22;55052;52.056;5.296;2023-10-13T02:58:52;18.40;97.80
68235;DHT22;55052;52.056;5.296;2023-10-13T03:01:23;18.40;97.80
68235;DHT22;55052;52.056;5.296;2023-10-13T03:03:57;18.40;97.70
68235;DHT22;55052;52.056;5.296;2023-10-13T03:06:26;18.40;97.70
68235;DHT22;55052;52.056;5.296;2023-10-13T03:09:04;18.30;97.70
68235;DHT22;55052;52.056;5.296;2023-10-13T03:11:42;18.40;97.80
68235;DHT22;55052;52.056;5.296;2023-10-13T03:14:19;18.40;97.80
68235;DHT22;55052;52.056;5.296;2023-10-13T03:17:04;18.40;97.70
68235;DHT22;55052;52.056;5.296;2023-10-13T03:19:33;18.30;97.70
68235;DHT22;55052;52.056;5.296;2023-10-13T03:22:04;18.30;97.70
68235;DHT22;55052;52.056;5.296;2023-10-13T03:24:37;18.30;97.80
68235;DHT22;55052;52.056;5.296;2023-10-13T03:27:08;18.30;97.80
68235;DHT22;55052;52.056;5.296;2023-10-13T03:29:36;18.30;97.70
68235;DHT22;55052;52.056;5.296;2023-10-13T03:32:04;18.30;97.70
68235;DHT22;55052;52.056;5.296;2023-10-13T03:34:39;18.40;97.70
68235;DHT22;55052;52.056;5.296;2023-10-13T03:37:41;18.40;97.80
68235;DHT22;55052;52.056;5.296;2023-10-13T03:40:09;18.30;97.80
68235;DHT22;55052;52.056;5.296;2023-10-13T03:42:52;18.30;97.80
68235;DHT22;55052;52.056;5.296;2023-10-13T03:45:38;18.30;97.80
68235;DHT22;55052;52.056;5.296;2023-10-13T03:48:16;18.30;97.80
68235;DHT22;55052;52.056;5.296;2023-10-13T03:50:57;18.30;97.80
68235;DHT22;55052;52.056;5.296;2023-10-13T03:53:38;18.30;97.80
68235;DHT22;55052;52.056;5.296;2023-10-13T03:56:21;18.20;97.80
68235;DHT22;55052;52.056;5.296;2023-10-13T03:58:59;18.30;97.80
68235;DHT22;55052;52.056;5.296;2023-10-13T04:01:52;18.30;97.80
68235;DHT22;55052;52.056;5.296;2023-10-13T04:04:19;18.20;97.80
68235;DHT22;55052;52.056;5.296;2023-10-13T04:07:06;18.20;97.90
68235;DHT22;55052;52.056;5.296;2023-10-13T04:09:37;18.20;97.90
68235;DHT22;55052;52.056;5.296;2023-10-13T04:12:06;18.20;97.90
68235;DHT22;55052;52.056;5.296;2023-10-13T04:14:43;18.30;97.90
68235;DHT22;55052;52.056;5.296;2023-10-13T04:17:39;18.20;97.90
68235;DHT22;55052;52.056;5.296;2023-10-13T04:20:13;18.20;97.90
68235;DHT22;55052;52.056;5.296;2023-10-13T04:22:42;18.20;97.90
68235;DHT22;55052;52.056;5.296;2023-10-13T04:25:27;18.20;98.00
68235;DHT22;55052;52.056;5.296;2023-10-13T04:28:13;18.20;98.40
68235;DHT22;55052;52.056;5.296;2023-10-13T04:30:43;18.20;98.00
68235;DHT22;55052;52.056;5.296;2023-10-13T04:33:31;18.20;98.00
68235;DHT22;55052;52.056;5.296;2023-10-13T04:38:59;18.30;98.10
68235;DHT22;55052;52.056;5.296;2023-10-13T04:41:36;18.30;98.10
68235;DHT22;55052;52.056;5.296;2023-10-13T04:44:24;18.30;98.10
68235;DHT22;55052;52.056;5.296;2023-10-13T04:47:09;18.20;98.10
68235;DHT22;55052;52.056;5.296;2023-10-13T04:49:44;18.20;98.10
68235;DHT22;55052;52.056;5.296;2023-10-13T04:52:14;18.20;98.20
68235;DHT22;55052;52.056;5.296;2023-10-13T04:55:00;18.30;98.20
68235;DHT22;55052;52.056;5.296;2023-10-13T04:57:37;18.30;98.30
68235;DHT22;55052;52.056;5.296;2023-10-13T05:00:13;18.30;98.30
68235;DHT22;55052;52.056;5.296;2023-10-13T05:02:47;18.30;98.40
68235;DHT22;55052;52.056;5.296;2023-10-13T05:05:16;18.30;98.50
68235;DHT22;55052;52.056;5.296;2023-10-13T05:07:52;18.30;98.60
68235;DHT22;55052;52.056;5.296;2023-10-13T05:10:38;18.30;98.60
68235;DHT22;55052;52.056;5.296;2023-10-13T05:13:23;18.40;98.70
68235;DHT22;55052;52.056;5.296;2023-10-13T05:16:09;18.40;98.80
68235;DHT22;55052;52.056;5.296;2023-10-13T05:18:54;18.50;98.90
68235;DHT22;55052;52.056;5.296;2023-10-13T05:21:40;18.50;99.00
68235;DHT22;55052;52.056;5.296;2023-10-13T05:24:25;18.50;99.10
68235;DHT22;55052;52.056;5.296;2023-10-13T05:27:11;18.60;99.10
68235;DHT22;55052;52.056;5.296;2023-10-13T05:29:56;18.60;99.20
68235;DHT22;55052;52.056;5.296;2023-10-13T05:32:42;18.60;99.20
68235;DHT22;55052;52.056;5.296;2023-10-13T05:35:27;18.70;99.20
68235;DHT22;55052;52.056;5.296;2023-10-13T05:38:33;18.70;99.10
68235;DHT22;55052;52.056;5.296;2023-10-13T05:41:18;18.70;99.10
68235;DHT22;55052;52.056;5.296;2023-10-13T05:44:04;18.70;99.10
68235;DHT22;55052;52.056;5.296;2023-10-13T05:46:49;18.70;99.00
68235;DHT22;55052;52.056;5.296;2023-10-13T05:49:17;18.70;98.90
68235;DHT22;55052;52.056;5.296;2023-10-13T05:51:44;18.70;98.90
68235;DHT22;55052;52.056;5.296;2023-10-13T05:54:24;18.70;98.80
68235;DHT22;55052;52.056;5.296;2023-10-13T05:57:10;18.70;98.80
68235;DHT22;55052;52.056;5.296;2023-10-13T05:59:55;18.70;98.80
68235;DHT22;55052;52.056;5.296;2023-10-13T06:02:41;18.70;98.80
68235;DHT22;55052;52.056;5.296;2023-10-13T06:05:26;18.60;98.70
68235;DHT22;55052;52.056;5.296;2023-10-13T06:08:29;18.60;98.70
68235;DHT22;55052;52.056;5.296;2023-10-13T06:11:14;18.60;98.70
68235;DHT22;55052;52.056;5.296;2023-10-13T06:13:59;18.70;98.70
68235;DHT22;55052;52.056;5.296;2023-10-13T06:16:45;18.60;98.70
68235;DHT22;55052;52.056;5.296;2023-10-13T06:19:31;18.70;98.70
68235;DHT22;55052;52.056;5.296;2023-10-13T06:22:16;18.60;98.70
68235;DHT22;55052;52.056;5.296;2023-10-13T06:25:01;18.60;98.60
68235;DHT22;55052;52.056;5.296;2023-10-13T06:27:47;18.70;98.60
68235;DHT22;55052;52.056;5.296;2023-10-13T06:30:32;18.70;98.60
68235;DHT22;55052;52.056;5.296;2023-10-13T06:32:59;18.70;98.70
68235;DHT22;55052;52.056;5.296;2023-10-13T06:35:27;18.70;98.60
68235;DHT22;55052;52.056;5.296;2023-10-13T06:37:56;18.70;98.70
68235;DHT22;55052;52.056;5.296;2023-10-13T06:40:27;18.70;98.70
68235;DHT22;55052;52.056;5.296;2023-10-13T06:43:00;18.70;98.70
68235;DHT22;55052;52.056;5.296;2023-10-13T06:45:43;18.70;98.70
68235;DHT22;55052;52.056;5.296;2023-10-13T06:48:17;18.70;99.10
68235;DHT22;55052;52.056;5.296;2023-10-13T06:50:50;18.80;98.80
68235;DHT22;55052;52.056;5.296;2023-10-13T06:53:19;18.80;98.80
68235;DHT22;55052;52.056;5.296;2023-10-13T06:55:46;18.80;98.80
68235;DHT22;55052;52.056;5.296;2023-10-13T06:58:14;18.90;98.90
68235;DHT22;55052;52.056;5.296;2023-10-13T07:00:41;18.80;98.90
68235;DHT22;55052;52.056;5.296;2023-10-13T07:03:19;18.90;99.00
68235;DHT22;55052;52.056;5.296;2023-10-13T07:05:46;18.90;99.10
68235;DHT22;55052;52.056;5.296;2023-10-13T07:08:17;19.00;99.10
68235;DHT22;55052;52.056;5.296;2023-10-13T07:10:49;19.00;99.10
68235;DHT22;55052;52.056;5.296;2023-10-13T07:13:18;19.00;99.10
68235;DHT22;55052;52.056;5.296;2023-10-13T07:15:46;19.00;99.10
68235;DHT22;55052;52.056;5.296;2023-10-13T07:18:15;19.00;99.10
68235;DHT22;55052;52.056;5.296;2023-10-13T07:20:44;19.10;99.20
68235;DHT22;55052;52.056;5.296;2023-10-13T07:23:14;19.10;99.20
68235;DHT22;55052;52.056;5.296;2023-10-13T07:25:55;19.10;99.20
68235;DHT22;55052;52.056;5.296;2023-10-13T07:28:30;19.10;99.20
68235;DHT22;55052;52.056;5.296;2023-10-13T07:31:03;19.20;99.20
68235;DHT22;55052;52.056;5.296;2023-10-13T07:33:30;19.20;99.20
68235;DHT22;55052;52.056;5.296;2023-10-13T07:36:05;19.20;99.20
68235;DHT22;55052;52.056;5.296;2023-10-13T07:38:43;19.20;99.20
68235;DHT22;55052;52.056;5.296;2023-10-13T07:41:10;19.20;99.10
68235;DHT22;55052;52.056;5.296;2023-10-13T07:43:42;19.20;99.10
68235;DHT22;55052;52.056;5.296;2023-10-13T07:46:11;19.20;99.10
68235;DHT22;55052;52.056;5.296;2023-10-13T07:48:39;19.20;99.10
68235;DHT22;55052;52.056;5.296;2023-10-13T07:51:12;19.20;99.10
68235;DHT22;55052;52.056;5.296;2023-10-13T07:53:46;19.20;99.40
68235;DHT22;55052;52.056;5.296;2023-10-13T07:56:15;19.20;99.00
68235;DHT22;55052;52.056;5.296;2023-10-13T07:58:45;19.20;99.00
68235;DHT22;55052;52.056;5.296;2023-10-13T08:01:30;19.20;99.00
68235;DHT22;55052;52.056;5.296;2023-10-13T08:03:59;19.20;99.00
68235;DHT22;55052;52.056;5.296;2023-10-13T08:06:35;19.30;99.10
68235;DHT22;55052;52.056;5.296;2023-10-13T08:09:04;19.30;99.10
68235;DHT22;55052;52.056;5.296;2023-10-13T08:11:37;19.30;99.10
68235;DHT22;55052;52.056;5.296;2023-10-13T08:14:05;19.30;99.00
68235;DHT22;55052;52.056;5.296;2023-10-13T08:16:58;19.30;99.30
68235;DHT22;55052;52.056;5.296;2023-10-13T08:19:35;19.30;99.30
68235;DHT22;55052;52.056;5.296;2023-10-13T08:22:14;19.40;99.00
68235;DHT22;55052;52.056;5.296;2023-10-13T08:24:51;19.40;98.90
68235;DHT22;55052;52.056;5.296;2023-10-13T08:27:20;19.40;98.90
68235;DHT22;55052;52.056;5.296;2023-10-13T08:30:15;19.40;98.80
68235;DHT22;55052;52.056;5.296;2023-10-13T08:32:57;19.50;98.70
68235;DHT22;55052;52.056;5.296;2023-10-13T08:35:26;19.50;98.70
68235;DHT22;55052;52.056;5.296;2023-10-13T08:37:56;19.50;98.60
68235;DHT22;55052;52.056;5.296;2023-10-13T08:40:43;19.50;98.50
68235;DHT22;55052;52.056;5.296;2023-10-13T08:43:32;19.60;98.40
68235;DHT22;55052;52.056;5.296;2023-10-13T08:46:09;19.60;98.30
68235;DHT22;55052;52.056;5.296;2023-10-13T08:48:36;19.60;98.20
68235;DHT22;55052;52.056;5.296;2023-10-13T08:51:04;19.60;98.00
68235;DHT22;55052;52.056;5.296;2023-10-13T08:53:38;19.70;98.00
68235;DHT22;55052;52.056;5.296;2023-10-13T08:56:14;19.70;97.90
68235;DHT22;55052;52.056;5.296;2023-10-13T08:58:47;19.70;97.70
68235;DHT22;55052;52.056;5.296;2023-10-13T09:01:26;19.80;97.60
68235;DHT22;55052;52.056;5.296;2023-10-13T09:04:17;19.80;97.50
68235;DHT22;55052;52.056;5.296;2023-10-13T09:06:54;19.80;97.40
68235;DHT22;55052;52.056;5.296;2023-10-13T09:09:27;19.80;97.20
68235;DHT22;55052;52.056;5.296;2023-10-13T09:14:53;19.90;96.90
68235;DHT22;55052;52.056;5.296;2023-10-13T09:17:39;19.90;96.90
68235;DHT22;55052;52.056;5.296;2023-10-13T09:20:09;19.90;96.80
68235;DHT22;55052;52.056;5.296;2023-10-13T09:22:53;19.90;96.70
68235;DHT22;55052;52.056;5.296;2023-10-13T09:25:29;19.90;96.60
68235;DHT22;55052;52.056;5.296;2023-10-13T09:28:12;19.90;96.50
68235;DHT22;55052;52.056;5.296;2023-10-13T09:30:52;19.90;96.40
68235;DHT22;55052;52.056;5.296;2023-10-13T09:36:03;20.00;96.20
68235;DHT22;55052;52.056;5.296;2023-10-13T09:38:35;20.00;96.10
68235;DHT22;55052;52.056;5.296;2023-10-13T09:41:04;20.00;96.00
68235;DHT22;55052;52.056;5.296;2023-10-13T09:43:53;20.00;95.90
68235;DHT22;55052;52.056;5.296;2023-10-13T09:46:26;20.10;95.90
68235;DHT22;55052;52.056;5.296;2023-10-13T09:48:58;20.10;95.90
68235;DHT22;55052;52.056;5.296;2023-10-13T09:51:35;20.10;95.70
68235;DHT22;55052;52.056;5.296;2023-10-13T09:57:06;20.10;95.50
68235;DHT22;55052;52.056;5.296;2023-10-13T09:59:49;20.10;95.30
68235;DHT22;55052;52.056;5.296;2023-10-13T10:02:19;20.10;95.30
68235;DHT22;55052;52.056;5.296;2023-10-13T10:04:54;20.10;95.30
68235;DHT22;55052;52.056;5.296;2023-10-13T10:07:26;20.10;95.20
68235;DHT22;55052;52.056;5.296;2023-10-13T10:09:58;20.10;95.10
68235;DHT22;55052;52.056;5.296;2023-10-13T10:12:57;20.10;95.10
68235;DHT22;55052;52.056;5.296;2023-10-13T10:15:29;20.20;94.90
68235;DHT22;55052;52.056;5.296;2023-10-13T10:18:20;20.20;94.90
68235;DHT22;55052;52.056;5.296;2023-10-13T10:21:03;20.20;94.80
68235;DHT22;55052;52.056;5.296;2023-10-13T10:23:34;20.20;94.70
68235;DHT22;55052;52.056;5.296;2023-10-13T10:26:13;20.20;94.70
68235;DHT22;55052;52.056;5.296;2023-10-13T10:28:42;20.30;94.60
68235;DHT22;55052;52.056;5.296;2023-10-13T10:31:10;20.30;94.60
68235;DHT22;55052;52.056;5.296;2023-10-13T10:33:46;20.30;94.50
68235;DHT22;55052;52.056;5.296;2023-10-13T10:36:28;20.30;94.40
68235;DHT22;55052;52.056;5.296;2023-10-13T10:38:57;20.30;94.20
68235;DHT22;55052;52.056;5.296;2023-10-13T10:41:29;20.40;94.20
68235;DHT22;55052;52.056;5.296;2023-10-13T10:44:10;20.50;94.10
68235;DHT22;55052;52.056;5.296;2023-10-13T10:46:42;20.50;94.00
68235;DHT22;55052;52.056;5.296;2023-10-13T10:49:19;20.60;94.00
68235;DHT22;55052;52.056;5.296;2023-10-13T10:52:01;20.60;93.90
68235;DHT22;55052;52.056;5.296;2023-10-13T10:54:31;20.60;93.70
68235;DHT22;55052;52.056;5.296;2023-10-13T10:57:00;20.70;93.60
68235;DHT22;55052;52.056;5.296;2023-10-13T10:59:45;20.70;93.40
68235;DHT22;55052;52.056;5.296;2023-10-13T11:02:12;20.70;93.60
68235;DHT22;55052;52.056;5.296;2023-10-13T11:04:50;20.80;93.40
68235;DHT22;55052;52.056;5.296;2023-10-13T11:07:24;20.80;93.30
68235;DHT22;55052;52.056;5.296;2023-10-13T11:09:52;20.90;93.10
68235;DHT22;55052;52.056;5.296;2023-10-13T11:12:33;20.90;93.00
68235;DHT22;55052;52.056;5.296;2023-10-13T11:15:07;20.90;92.80
68235;DHT22;55052;52.056;5.296;2023-10-13T11:17:51;20.90;92.70
68235;DHT22;55052;52.056;5.296;2023-10-13T11:20:21;20.90;92.60
68235;DHT22;55052;52.056;5.296;2023-10-13T11:23:00;20.90;92.50
68235;DHT22;55052;52.056;5.296;2023-10-13T11:25:30;20.90;92.30
68235;DHT22;55052;52.056;5.296;2023-10-13T11:28:15;20.90;92.10
68235;DHT22;55052;52.056;5.296;2023-10-13T11:30:48;21.00;91.80
68235;DHT22;55052;52.056;5.296;2023-10-13T11:33:19;21.00;91.90
68235;DHT22;55052;52.056;5.296;2023-10-13T11:35:50;21.00;91.60
68235;DHT22;55052;52.056;5.296;2023-10-13T11:38:21;21.00;91.50
68235;DHT22;55052;52.056;5.296;2023-10-13T11:41:00;21.00;91.30
68235;DHT22;55052;52.056;5.296;2023-10-13T11:43:27;21.00;91.00
68235;DHT22;55052;52.056;5.296;2023-10-13T11:45:54;21.10;90.80
68235;DHT22;55052;52.056;5.296;2023-10-13T11:48:45;21.10;90.60
68235;DHT22;55052;52.056;5.296;2023-10-13T11:51:14;21.10;90.40
68235;DHT22;55052;52.056;5.296;2023-10-13T11:53:44;21.20;90.20
68235;DHT22;55052;52.056;5.296;2023-10-13T11:56:12;21.20;90.00
68235;DHT22;55052;52.056;5.296;2023-10-13T11:58:40;21.20;89.70
68235;DHT22;55052;52.056;5.296;2023-10-13T12:01:07;21.20;89.50
68235;DHT22;55052;52.056;5.296;2023-10-13T12:03:40;21.20;89.20
68235;DHT22;55052;52.056;5.296;2023-10-13T12:06:27;21.30;88.90
68235;DHT22;55052;52.056;5.296;2023-10-13T12:09:05;21.30;88.60
68235;DHT22;55052;52.056;5.296;2023-10-13T12:11:45;21.30;88.40
68235;DHT22;55052;52.056;5.296;2023-10-13T12:14:12;21.30;88.20
68235;DHT22;55052;52.056;5.296;2023-10-13T12:16:54;21.30;88.10
68235;DHT22;55052;52.056;5.296;2023-10-13T12:19:23;21.30;87.70
68235;DHT22;55052;52.056;5.296;2023-10-13T12:21:51;21.40;87.70
68235;DHT22;55052;52.056;5.296;2023-10-13T12:24:32;21.40;87.60
68235;DHT22;55052;52.056;5.296;2023-10-13T12:27:05;21.40;87.60
68235;DHT22;55052;52.056;5.296;2023-10-13T12:29:52;21.40;86.90
68235;DHT22;55052;52.056;5.296;2023-10-13T12:32:19;21.40;86.90
68235;DHT22;55052;52.056;5.296;2023-10-13T12:34:52;21.40;86.90
68235;DHT22;55052;52.056;5.296;2023-10-13T12:37:29;21.40;86.60
68235;DHT22;55052;52.056;5.296;2023-10-13T12:40:12;21.40;86.40
68235;DHT22;55052;52.056;5.296;2023-10-13T12:42:58;21.50;86.30
68235;DHT22;55052;52.056;5.296;2023-10-13T12:45:44;21.50;86.10
68235;DHT22;55052;52.056;5.296;2023-10-13T12:48:32;21.50;85.90
68235;DHT22;55052;52.056;5.296;2023-10-13T12:51:18;21.50;85.80
68235;DHT22;55052;52.056;5.296;2023-10-13T12:54:03;21.50;85.60
68235;DHT22;55052;52.056;5.296;2023-10-13T12:56:42;21.60;85.70
68235;DHT22;55052;52.056;5.296;2023-10-13T12:59:10;21.60;85.60
68235;DHT22;55052;52.056;5.296;2023-10-13T13:01:40;21.60;85.60
68235;DHT22;55052;52.056;5.296;2023-10-13T13:04:10;21.60;85.40
68235;DHT22;55052;52.056;5.296;2023-10-13T13:06:48;21.50;85.00
68235;DHT22;55052;52.056;5.296;2023-10-13T13:09:15;21.60;85.80
68235;DHT22;55052;52.056;5.296;2023-10-13T13:11:42;21.60;85.80
68235;DHT22;55052;52.056;5.296;2023-10-13T13:14:09;21.60;85.90
68235;DHT22;55052;52.056;5.296;2023-10-13T13:16:36;21.60;86.00
68235;DHT22;55052;52.056;5.296;2023-10-13T13:19:06;21.50;86.30
68235;DHT22;55052;52.056;5.296;2023-10-13T13:21:40;21.50;86.40
68235;DHT22;55052;52.056;5.296;2023-10-13T13:24:08;21.50;86.50
68235;DHT22;55052;52.056;5.296;2023-10-13T13:26:40;21.50;86.80
68235;DHT22;55052;52.056;5.296;2023-10-13T13:29:07;21.40;87.80
68235;DHT22;55052;52.056;5.296;2023-10-13T13:31:37;21.40;88.00
68235;DHT22;55052;52.056;5.296;2023-10-13T13:34:11;21.40;87.40
68235;DHT22;55052;52.056;5.296;2023-10-13T13:36:46;21.30;87.60
68235;DHT22;55052;52.056;5.296;2023-10-13T13:39:15;21.20;87.80
68235;DHT22;55052;52.056;5.296;2023-10-13T13:41:45;21.20;88.10
68235;DHT22;55052;52.056;5.296;2023-10-13T13:44:11;21.20;88.20
68235;DHT22;55052;52.056;5.296;2023-10-13T13:46:41;21.10;88.30
68235;DHT22;55052;52.056;5.296;2023-10-13T13:49:09;21.00;88.60
68235;DHT22;55052;52.056;5.296;2023-10-13T13:51:46;21.00;88.80
68235;DHT22;55052;52.056;5.296;2023-10-13T13:54:19;21.00;89.00
68235;DHT22;55052;52.056;5.296;2023-10-13T13:56:47;20.90;89.00
68235;DHT22;55052;52.056;5.296;2023-10-13T13:59:14;20.90;89.20
68235;DHT22;55052;52.056;5.296;2023-10-13T14:01:46;20.90;89.40
68235;DHT22;55052;52.056;5.296;2023-10-13T14:04:14;20.90;89.50
68235;DHT22;55052;52.056;5.296;2023-10-13T14:06:44;20.90;89.70
68235;DHT22;55052;52.056;5.296;2023-10-13T14:09:12;20.90;90.00
68235;DHT22;55052;52.056;5.296;2023-10-13T14:11:43;20.80;90.00
68235;DHT22;55052;52.056;5.296;2023-10-13T14:14:28;20.80;90.20
68235;DHT22;55052;52.056;5.296;2023-10-13T14:16:56;20.70;90.40
68235;DHT22;55052;52.056;5.296;2023-10-13T14:19:30;20.70;90.60
68235;DHT22;55052;52.056;5.296;2023-10-13T14:21:58;20.60;90.70
68235;DHT22;55052;52.056;5.296;2023-10-13T14:24:26;20.50;90.80
68235;DHT22;55052;52.056;5.296;2023-10-13T14:27:02;20.50;91.00
68235;DHT22;55052;52.056;5.296;2023-10-13T14:29:46;20.50;91.10
68235;DHT22;55052;52.056;5.296;2023-10-13T14:32:14;20.40;91.30
68235;DHT22;55052;52.056;5.296;2023-10-13T14:34:43;20.40;91.90
68235;DHT22;55052;52.056;5.296;2023-10-13T14:37:11;20.30;91.60
68235;DHT22;55052;52.056;5.296;2023-10-13T14:39:47;20.30;91.80
68235;DHT22;55052;52.056;5.296;2023-10-13T14:42:13;20.30;92.40
68235;DHT22;55052;52.056;5.296;2023-10-13T14:44:43;20.20;92.20
68235;DHT22;55052;52.056;5.296;2023-10-13T14:47:10;20.20;92.30
68235;DHT22;55052;52.056;5.296;2023-10-13T14:49:38;20.20;92.50
68235;DHT22;55052;52.056;5.296;2023-10-13T14:52:07;20.20;92.60
68235;DHT22;55052;52.056;5.296;2023-10-13T14:54:38;20.20;92.70
68235;DHT22;55052;52.056;5.296;2023-10-13T14:57:05;20.10;92.80
68235;DHT22;55052;52.056;5.296;2023-10-13T14:59:31;20.10;93.00
68235;DHT22;55052;52.056;5.296;2023-10-13T15:02:01;20.10;93.10
68235;DHT22;55052;52.056;5.296;2023-10-13T15:04:29;20.10;93.10
68235;DHT22;55052;52.056;5.296;2023-10-13T15:07:00;20.10;93.30
68235;DHT22;55052;52.056;5.296;2023-10-13T15:09:30;20.10;93.40
68235;DHT22;55052;52.056;5.296;2023-10-13T15:11:57;20.00;93.50
68235;DHT22;55052;52.056;5.296;2023-10-13T15:14:24;20.00;93.60
68235;DHT22;55052;52.056;5.296;2023-10-13T15:16:51;20.00;93.70
68235;DHT22;55052;52.056;5.296;2023-10-13T15:19:22;20.00;93.80
68235;DHT22;55052;52.056;5.296;2023-10-13T15:21:50;20.00;94.10
68235;DHT22;55052;52.056;5.296;2023-10-13T15:24:17;20.00;94.00
68235;DHT22;55052;52.056;5.296;2023-10-13T15:26:53;19.90;94.00
68235;DHT22;55052;52.056;5.296;2023-10-13T15:29:28;20.00;94.10
68235;DHT22;55052;52.056;5.296;2023-10-13T15:32:04;19.90;94.20
68235;DHT22;55052;52.056;5.296;2023-10-13T15:34:32;19.90;94.30
68235;DHT22;55052;52.056;5.296;2023-10-13T15:36:59;19.90;94.40
68235;DHT22;55052;52.056;5.296;2023-10-13T15:39:27;19.90;94.50
68235;DHT22;55052;52.056;5.296;2023-10-13T15:41:56;19.80;94.50
68235;DHT22;55052;52.056;5.296;2023-10-13T15:44:26;19.80;94.60
68235;DHT22;55052;52.056;5.296;2023-10-13T15:46:58;19.80;94.70
68235;DHT22;55052;52.056;5.296;2023-10-13T15:49:30;19.80;94.80
68235;DHT22;55052;52.056;5.296;2023-10-13T15:51:59;19.80;94.90
68235;DHT22;55052;52.056;5.296;2023-10-13T15:54:26;19.80;94.90
68235;DHT22;55052;52.056;5.296;2023-10-13T15:56:52;19.80;95.00
68235;DHT22;55052;52.056;5.296;2023-10-13T15:59:21;19.80;95.10
68235;DHT22;55052;52.056;5.296;2023-10-13T16:01:50;19.70;95.10
68235;DHT22;55052;52.056;5.296;2023-10-13T16:04:21;19.70;95.10
68235;DHT22;55052;52.056;5.296;2023-10-13T16:06:49;19.70;95.20
68235;DHT22;55052;52.056;5.296;2023-10-13T16:09:19;19.70;95.20
68235;DHT22;55052;52.056;5.296;2023-10-13T16:11:51;19.70;95.30
68235;DHT22;55052;52.056;5.296;2023-10-13T16:14:19;19.70;95.30
68235;DHT22;55052;52.056;5.296;2023-10-13T16:16:48;19.70;95.30
68235;DHT22;55052;52.056;5.296;2023-10-13T16:19:21;19.70;95.40
68235;DHT22;55052;52.056;5.296;2023-10-13T16:21:51;19.70;95.40
68235;DHT22;55052;52.056;5.296;2023-10-13T16:24:18;19.70;95.40
68235;DHT22;55052;52.056;5.296;2023-10-13T16:26:49;19.70;95.50